sensor_id;sensor_type;location;lat;lon;timestamp;pressure;altitude;pressure_sealevel;temperature;humidity
53041;BME280;39326;42.650;23.248;2023-03-12T00:02:07;91718.41;;;0.36;63.39
53041;BME280;39326;42.650;23.248;2023-03-12T00:04:33;91717.56;;;0.48;62.13
53041;BME280;39326;42.650;23.248;2023-03-12T00:07:00;91726.53;;;0.47;62.85
53041;BME280;39326;42.650;23.248;2023-03-12T00:09:26;91728.03;;;0.48;63.19
53041;BME280;39326;42.650;23.248;2023-03-12T00:11:51;91727.13;;;0.40;63.49
53041;BME280;39326;42.650;23.248;2023-03-12T00:14:16;91716.38;;;0.29;63.41
53041;BME280;39326;42.650;23.248;2023-03-12T00:16:42;91729.03;;;0.27;63.21
53041;BME280;39326;42.650;23.248;2023-03-12T00:19:10;91733.38;;;0.35;63.34
53041;BME280;39326;42.650;23.248;2023-03-12T00:21:36;91737.59;;;0.24;63.23
53041;BME280;39326;42.650;23.248;2023-03-12T00:24:02;91722.88;;;0.04;62.78
53041;BME280;39326;42.650;23.248;2023-03-12T00:26:28;91740.56;;;0.23;63.12
53041;BME280;39326;42.650;23.248;2023-03-12T00:28:54;91742.16;;;0.27;63.02
53041;BME280;39326;42.650;23.248;2023-03-12T00:31:25;91728.81;;;0.17;63.83
53041;BME280;39326;42.650;23.248;2023-03-12T00:33:51;91736.66;;;0.17;63.87
53041;BME280;39326;42.650;23.248;2023-03-12T00:36:18;91735.13;;;-0.00;63.42
53041;BME280;39326;42.650;23.248;2023-03-12T00:38:45;91738.69;;;-0.08;64.38
53041;BME280;39326;42.650;23.248;2023-03-12T00:41:11;91722.84;;;-0.12;64.01
53041;BME280;39326;42.650;23.248;2023-03-12T00:43:36;91713.81;;;0.01;64.58
53041;BME280;39326;42.650;23.248;2023-03-12T00:46:02;91723.66;;;0.04;63.97
53041;BME280;39326;42.650;23.248;2023-03-12T00:48:27;91725.34;;;-0.03;64.23
53041;BME280;39326;42.650;23.248;2023-03-12T00:50:53;91728.78;;;0.01;64.89
53041;BME280;39326;42.650;23.248;2023-03-12T00:53:18;91725.41;;;0.00;64.25
53041;BME280;39326;42.650;23.248;2023-03-12T00:55:43;91710.13;;;0.02;64.49
53041;BME280;39326;42.650;23.248;2023-03-12T00:58:09;91721.69;;;0.01;64.13
53041;BME280;39326;42.650;23.248;2023-03-12T01:00:34;91717.13;;;-0.02;64.86
53041;BME280;39326;42.650;23.248;2023-03-12T01:03:00;91724.88;;;-0.05;64.44
53041;BME280;39326;42.650;23.248;2023-03-12T01:05:25;91733.50;;;-0.05;64.72
53041;BME280;39326;42.650;23.248;2023-03-12T01:07:51;91728.44;;;-0.13;66.06
53041;BME280;39326;42.650;23.248;2023-03-12T01:10:18;91722.09;;;-0.12;65.33
53041;BME280;39326;42.650;23.248;2023-03-12T01:12:44;91711.97;;;-0.14;65.85
53041;BME280;39326;42.650;23.248;2023-03-12T01:15:13;91732.22;;;-0.27;65.63
53041;BME280;39326;42.650;23.248;2023-03-12T01:17:39;91737.81;;;-0.28;66.61
53041;BME280;39326;42.650;23.248;2023-03-12T01:20:05;91718.78;;;-0.25;66.71
53041;BME280;39326;42.650;23.248;2023-03-12T01:22:30;91734.03;;;-0.43;67.69
53041;BME280;39326;42.650;23.248;2023-03-12T01:24:56;91727.06;;;-0.23;66.01
53041;BME280;39326;42.650;23.248;2023-03-12T01:27:21;91721.91;;;-0.20;66.45
53041;BME280;39326;42.650;23.248;2023-03-12T01:29:47;91721.69;;;-0.14;66.39
53041;BME280;39326;42.650;23.248;2023-03-12T01:32:13;91718.19;;;-0.34;66.79
53041;BME280;39326;42.650;23.248;2023-03-12T01:34:38;91719.34;;;-0.32;66.00
53041;BME280;39326;42.650;23.248;2023-03-12T01:37:03;91714.53;;;-0.30;66.01
53041;BME280;39326;42.650;23.248;2023-03-12T01:39:29;91723.50;;;-0.31;65.93
53041;BME280;39326;42.650;23.248;2023-03-12T01:41:54;91722.84;;;-0.28;64.61
53041;BME280;39326;42.650;23.248;2023-03-12T01:44:20;91726.16;;;-0.15;63.86
53041;BME280;39326;42.650;23.248;2023-03-12T01:46:45;91727.84;;;-0.07;63.33
53041;BME280;39326;42.650;23.248;2023-03-12T01:49:18;91725.41;;;-0.15;64.26
53041;BME280;39326;42.650;23.248;2023-03-12T01:54:22;91721.69;;;-0.14;64.90
53041;BME280;39326;42.650;23.248;2023-03-12T01:56:50;91714.34;;;-0.09;62.88
53041;BME280;39326;42.650;23.248;2023-03-12T01:59:20;91716.50;;;-0.11;64.14
53041;BME280;39326;42.650;23.248;2023-03-12T02:01:47;91720.34;;;-0.08;61.96
53041;BME280;39326;42.650;23.248;2023-03-12T02:04:15;91731.16;;;0.06;59.31
53041;BME280;39326;42.650;23.248;2023-03-12T02:06:47;91727.19;;;-0.04;61.15
53041;BME280;39326;42.650;23.248;2023-03-12T02:09:14;91721.50;;;-0.06;61.24
53041;BME280;39326;42.650;23.248;2023-03-12T02:11:39;91738.16;;;0.02;60.96
53041;BME280;39326;42.650;23.248;2023-03-12T02:14:05;91737.41;;;-0.14;62.77
53041;BME280;39326;42.650;23.248;2023-03-12T02:16:31;91735.28;;;-0.09;63.27
53041;BME280;39326;42.650;23.248;2023-03-12T02:18:59;91734.09;;;-0.11;63.79
53041;BME280;39326;42.650;23.248;2023-03-12T02:21:28;91748.69;;;-0.26;63.66
53041;BME280;39326;42.650;23.248;2023-03-12T02:26:57;91736.34;;;-0.26;65.28
53041;BME280;39326;42.650;23.248;2023-03-12T02:29:24;91735.06;;;-0.32;64.99
53041;BME280;39326;42.650;23.248;2023-03-12T02:31:52;91720.75;;;-0.22;63.81
53041;BME280;39326;42.650;23.248;2023-03-12T02:34:20;91719.88;;;-0.26;62.42
53041;BME280;39326;42.650;23.248;2023-03-12T02:36:47;91713.84;;;-0.42;63.20
53041;BME280;39326;42.650;23.248;2023-03-12T02:39:13;91720.88;;;-0.31;61.49
53041;BME280;39326;42.650;23.248;2023-03-12T02:41:41;91714.81;;;-0.35;62.10
53041;BME280;39326;42.650;23.248;2023-03-12T02:44:32;91718.94;;;-0.62;61.34
53041;BME280;39326;42.650;23.248;2023-03-12T02:46:59;91735.13;;;-0.44;61.78
53041;BME280;39326;42.650;23.248;2023-03-12T02:49:28;91734.47;;;-0.41;62.10
53041;BME280;39326;42.650;23.248;2023-03-12T02:51:54;91749.31;;;-0.45;62.04
53041;BME280;39326;42.650;23.248;2023-03-12T02:54:21;91765.00;;;-0.33;60.69
53041;BME280;39326;42.650;23.248;2023-03-12T02:56:48;91772.75;;;-0.36;60.85
53041;BME280;39326;42.650;23.248;2023-03-12T02:59:14;91764.16;;;-0.49;60.81
53041;BME280;39326;42.650;23.248;2023-03-12T03:01:40;91773.84;;;-0.37;61.14
53041;BME280;39326;42.650;23.248;2023-03-12T03:04:08;91766.34;;;-0.23;59.03
53041;BME280;39326;42.650;23.248;2023-03-12T03:06:36;91771.41;;;-0.30;59.75
53041;BME280;39326;42.650;23.248;2023-03-12T03:09:03;91772.66;;;-0.40;58.21
53041;BME280;39326;42.650;23.248;2023-03-12T03:11:29;91756.25;;;-0.37;59.48
53041;BME280;39326;42.650;23.248;2023-03-12T03:13:55;91778.09;;;-0.33;57.95
53041;BME280;39326;42.650;23.248;2023-03-12T03:16:20;91765.25;;;-0.50;57.04
53041;BME280;39326;42.650;23.248;2023-03-12T03:18:46;91785.66;;;-0.43;57.46
53041;BME280;39326;42.650;23.248;2023-03-12T03:21:12;91784.50;;;-0.30;55.94
53041;BME280;39326;42.650;23.248;2023-03-12T03:23:45;91777.94;;;-0.24;55.78
53041;BME280;39326;42.650;23.248;2023-03-12T03:26:12;91788.38;;;-0.40;55.99
53041;BME280;39326;42.650;23.248;2023-03-12T03:28:38;91781.66;;;-0.25;56.55
53041;BME280;39326;42.650;23.248;2023-03-12T03:31:03;91789.75;;;-0.30;56.09
53041;BME280;39326;42.650;23.248;2023-03-12T03:33:31;91780.03;;;-0.30;56.19
53041;BME280;39326;42.650;23.248;2023-03-12T03:35:57;91786.47;;;-0.27;55.77
53041;BME280;39326;42.650;23.248;2023-03-12T03:38:25;91783.13;;;-0.40;55.29
53041;BME280;39326;42.650;23.248;2023-03-12T03:40:51;91779.94;;;-0.33;54.60
53041;BME280;39326;42.650;23.248;2023-03-12T03:43:16;91790.22;;;-0.40;55.74
53041;BME280;39326;42.650;23.248;2023-03-12T03:45:42;91803.31;;;-0.40;55.93
53041;BME280;39326;42.650;23.248;2023-03-12T03:48:09;91811.38;;;-0.33;55.58
53041;BME280;39326;42.650;23.248;2023-03-12T03:50:37;91804.19;;;-0.49;56.44
53041;BME280;39326;42.650;23.248;2023-03-12T03:53:03;91796.69;;;-0.50;55.88
53041;BME280;39326;42.650;23.248;2023-03-12T03:55:29;91811.09;;;-0.56;56.56
53041;BME280;39326;42.650;23.248;2023-03-12T03:57:54;91818.56;;;-0.70;56.74
53041;BME280;39326;42.650;23.248;2023-03-12T04:00:20;91823.47;;;-0.69;57.89
53041;BME280;39326;42.650;23.248;2023-03-12T04:02:46;91816.38;;;-0.68;57.91
53041;BME280;39326;42.650;23.248;2023-03-12T04:05:11;91827.38;;;-0.63;57.24
53041;BME280;39326;42.650;23.248;2023-03-12T04:07:37;91827.25;;;-0.54;56.54
53041;BME280;39326;42.650;23.248;2023-03-12T04:10:04;91836.72;;;-0.50;54.75
53041;BME280;39326;42.650;23.248;2023-03-12T04:12:30;91826.38;;;-0.58;54.70
53041;BME280;39326;42.650;23.248;2023-03-12T04:14:55;91839.78;;;-0.48;55.11
53041;BME280;39326;42.650;23.248;2023-03-12T04:17:21;91842.19;;;-0.55;54.78
53041;BME280;39326;42.650;23.248;2023-03-12T04:19:47;91835.22;;;-0.63;55.31
53041;BME280;39326;42.650;23.248;2023-03-12T04:22:12;91841.56;;;-0.64;55.35
53041;BME280;39326;42.650;23.248;2023-03-12T04:24:38;91838.41;;;-0.69;54.09
53041;BME280;39326;42.650;23.248;2023-03-12T04:27:03;91841.56;;;-0.64;54.30
53041;BME280;39326;42.650;23.248;2023-03-12T04:29:29;91858.91;;;-0.59;54.45
53041;BME280;39326;42.650;23.248;2023-03-12T04:31:54;91843.00;;;-0.66;54.25
53041;BME280;39326;42.650;23.248;2023-03-12T04:34:20;91841.91;;;-0.78;55.90
53041;BME280;39326;42.650;23.248;2023-03-12T04:36:46;91853.69;;;-0.72;55.71
53041;BME280;39326;42.650;23.248;2023-03-12T04:39:13;91854.31;;;-0.75;55.56
53041;BME280;39326;42.650;23.248;2023-03-12T04:41:38;91855.75;;;-0.77;56.08
53041;BME280;39326;42.650;23.248;2023-03-12T04:44:04;91863.81;;;-0.70;54.75
53041;BME280;39326;42.650;23.248;2023-03-12T04:46:30;91857.81;;;-0.70;55.85
53041;BME280;39326;42.650;23.248;2023-03-12T04:48:55;91867.97;;;-0.69;53.63
53041;BME280;39326;42.650;23.248;2023-03-12T04:51:22;91886.63;;;-0.70;54.15
53041;BME280;39326;42.650;23.248;2023-03-12T04:53:48;91871.13;;;-0.63;53.49
53041;BME280;39326;42.650;23.248;2023-03-12T04:56:13;91881.03;;;-0.69;53.43
53041;BME280;39326;42.650;23.248;2023-03-12T04:58:39;91884.94;;;-0.51;53.25
53041;BME280;39326;42.650;23.248;2023-03-12T05:01:04;91884.63;;;-0.61;51.58
53041;BME280;39326;42.650;23.248;2023-03-12T05:03:30;91891.63;;;-0.53;50.86
53041;BME280;39326;42.650;23.248;2023-03-12T05:05:55;91877.44;;;-0.52;50.29
53041;BME280;39326;42.650;23.248;2023-03-12T05:08:21;91893.78;;;-0.43;50.07
53041;BME280;39326;42.650;23.248;2023-03-12T05:10:46;91893.47;;;-0.41;50.37
53041;BME280;39326;42.650;23.248;2023-03-12T05:13:14;91893.41;;;-0.29;48.79
53041;BME280;39326;42.650;23.248;2023-03-12T05:15:40;91902.84;;;-0.40;49.57
53041;BME280;39326;42.650;23.248;2023-03-12T05:18:05;91896.94;;;-0.37;49.65
53041;BME280;39326;42.650;23.248;2023-03-12T05:20:31;91898.91;;;-0.47;51.77
53041;BME280;39326;42.650;23.248;2023-03-12T05:22:56;91901.84;;;-0.36;50.59
53041;BME280;39326;42.650;23.248;2023-03-12T05:25:21;91904.44;;;-0.36;50.93
53041;BME280;39326;42.650;23.248;2023-03-12T05:27:47;91911.88;;;-0.38;50.62
53041;BME280;39326;42.650;23.248;2023-03-12T05:30:12;91904.00;;;-0.26;51.23
53041;BME280;39326;42.650;23.248;2023-03-12T05:32:38;91904.56;;;-0.32;51.42
53041;BME280;39326;42.650;23.248;2023-03-12T05:35:03;91895.63;;;-0.31;51.38
53041;BME280;39326;42.650;23.248;2023-03-12T05:37:29;91901.59;;;-0.31;52.49
53041;BME280;39326;42.650;23.248;2023-03-12T05:39:55;91899.94;;;-0.23;51.24
53041;BME280;39326;42.650;23.248;2023-03-12T05:42:23;91905.19;;;-0.23;52.03
53041;BME280;39326;42.650;23.248;2023-03-12T05:44:48;91906.75;;;-0.22;51.55
53041;BME280;39326;42.650;23.248;2023-03-12T05:47:15;91908.53;;;-0.10;50.39
53041;BME280;39326;42.650;23.248;2023-03-12T05:49:41;91923.41;;;-0.14;51.48
53041;BME280;39326;42.650;23.248;2023-03-12T05:52:08;91917.63;;;-0.20;51.59
53041;BME280;39326;42.650;23.248;2023-03-12T05:54:34;91932.13;;;-0.10;52.00
53041;BME280;39326;42.650;23.248;2023-03-12T05:57:00;91917.66;;;0.08;51.22
53041;BME280;39326;42.650;23.248;2023-03-12T05:59:27;91932.53;;;0.04;51.59
53041;BME280;39326;42.650;23.248;2023-03-12T06:01:53;91919.78;;;0.02;51.97
53041;BME280;39326;42.650;23.248;2023-03-12T06:04:19;91926.97;;;0.05;52.57
53041;BME280;39326;42.650;23.248;2023-03-12T06:06:44;91924.19;;;-0.14;51.93
53041;BME280;39326;42.650;23.248;2023-03-12T06:09:10;91925.44;;;0.04;51.26
53041;BME280;39326;42.650;23.248;2023-03-12T06:11:35;91943.13;;;0.07;52.08
53041;BME280;39326;42.650;23.248;2023-03-12T06:14:01;91950.13;;;0.03;52.41
53041;BME280;39326;42.650;23.248;2023-03-12T06:16:27;91944.53;;;0.17;52.58
53041;BME280;39326;42.650;23.248;2023-03-12T06:18:55;91942.09;;;0.24;53.12
53041;BME280;39326;42.650;23.248;2023-03-12T06:21:22;91943.22;;;0.11;51.29
53041;BME280;39326;42.650;23.248;2023-03-12T06:23:49;91947.22;;;0.21;52.00
53041;BME280;39326;42.650;23.248;2023-03-12T06:26:15;91951.81;;;0.24;51.38
53041;BME280;39326;42.650;23.248;2023-03-12T06:28:41;91949.50;;;0.34;52.17
53041;BME280;39326;42.650;23.248;2023-03-12T06:31:08;91955.34;;;0.44;51.14
53041;BME280;39326;42.650;23.248;2023-03-12T06:33:33;91975.88;;;0.54;51.08
53041;BME280;39326;42.650;23.248;2023-03-12T06:36:02;91978.16;;;0.55;51.53
53041;BME280;39326;42.650;23.248;2023-03-12T06:38:28;91979.19;;;0.67;51.05
53041;BME280;39326;42.650;23.248;2023-03-12T06:40:59;91996.53;;;0.71;50.37
53041;BME280;39326;42.650;23.248;2023-03-12T06:43:26;91990.16;;;0.84;50.47
53041;BME280;39326;42.650;23.248;2023-03-12T06:45:56;92002.44;;;0.80;50.34
53041;BME280;39326;42.650;23.248;2023-03-12T06:48:23;92002.19;;;0.85;49.72
53041;BME280;39326;42.650;23.248;2023-03-12T06:50:49;91995.06;;;0.86;50.30
53041;BME280;39326;42.650;23.248;2023-03-12T06:53:15;92001.16;;;0.90;50.50
53041;BME280;39326;42.650;23.248;2023-03-12T06:55:42;92018.69;;;0.86;49.57
53041;BME280;39326;42.650;23.248;2023-03-12T06:58:08;92024.78;;;0.90;50.60
53041;BME280;39326;42.650;23.248;2023-03-12T07:00:34;92013.72;;;0.97;50.50
53041;BME280;39326;42.650;23.248;2023-03-12T07:02:59;92025.41;;;0.99;50.10
53041;BME280;39326;42.650;23.248;2023-03-12T07:05:26;92013.44;;;0.86;50.48
53041;BME280;39326;42.650;23.248;2023-03-12T07:07:51;92015.34;;;1.01;50.16
53041;BME280;39326;42.650;23.248;2023-03-12T07:10:17;92026.34;;;1.07;50.01
53041;BME280;39326;42.650;23.248;2023-03-12T07:12:43;92028.00;;;1.27;50.37
53041;BME280;39326;42.650;23.248;2023-03-12T07:15:09;92034.00;;;1.28;50.04
53041;BME280;39326;42.650;23.248;2023-03-12T07:17:34;92035.97;;;1.47;50.68
53041;BME280;39326;42.650;23.248;2023-03-12T07:20:00;92039.72;;;1.61;50.55
53041;BME280;39326;42.650;23.248;2023-03-12T07:22:25;92044.47;;;1.56;50.30
53041;BME280;39326;42.650;23.248;2023-03-12T07:24:51;92055.22;;;1.82;47.64
53041;BME280;39326;42.650;23.248;2023-03-12T07:27:16;92058.28;;;2.00;48.21
53041;BME280;39326;42.650;23.248;2023-03-12T07:29:42;92066.16;;;2.00;48.82
53041;BME280;39326;42.650;23.248;2023-03-12T07:32:08;92064.91;;;2.10;49.62
53041;BME280;39326;42.650;23.248;2023-03-12T07:34:34;92075.47;;;2.13;48.42
53041;BME280;39326;42.650;23.248;2023-03-12T07:36:59;92063.94;;;2.02;46.69
53041;BME280;39326;42.650;23.248;2023-03-12T07:39:25;92071.25;;;2.09;47.43
53041;BME280;39326;42.650;23.248;2023-03-12T07:41:50;92076.94;;;2.11;47.84
53041;BME280;39326;42.650;23.248;2023-03-12T07:44:16;92079.66;;;1.83;47.78
53041;BME280;39326;42.650;23.248;2023-03-12T07:46:41;92067.28;;;1.99;47.52
53041;BME280;39326;42.650;23.248;2023-03-12T07:49:07;92070.88;;;2.26;48.76
53041;BME280;39326;42.650;23.248;2023-03-12T07:51:32;92077.31;;;2.44;48.31
53041;BME280;39326;42.650;23.248;2023-03-12T07:53:58;92094.25;;;2.47;47.23
53041;BME280;39326;42.650;23.248;2023-03-12T07:56:23;92095.47;;;2.49;47.95
53041;BME280;39326;42.650;23.248;2023-03-12T07:58:48;92092.84;;;2.34;48.48
53041;BME280;39326;42.650;23.248;2023-03-12T08:01:14;92078.25;;;2.36;48.62
53041;BME280;39326;42.650;23.248;2023-03-12T08:03:40;92081.50;;;2.30;49.57
53041;BME280;39326;42.650;23.248;2023-03-12T08:06:06;92093.19;;;2.48;49.45
53041;BME280;39326;42.650;23.248;2023-03-12T08:08:32;92094.16;;;2.59;48.94
53041;BME280;39326;42.650;23.248;2023-03-12T08:10:58;92106.44;;;2.36;47.50
53041;BME280;39326;42.650;23.248;2023-03-12T08:13:24;92113.69;;;2.58;47.32
53041;BME280;39326;42.650;23.248;2023-03-12T08:15:51;92119.16;;;2.49;46.63
53041;BME280;39326;42.650;23.248;2023-03-12T08:18:18;92106.25;;;2.44;46.32
53041;BME280;39326;42.650;23.248;2023-03-12T08:20:43;92102.59;;;2.33;45.41
53041;BME280;39326;42.650;23.248;2023-03-12T08:23:09;92117.13;;;2.27;46.46
53041;BME280;39326;42.650;23.248;2023-03-12T08:25:35;92106.03;;;2.69;47.33
53041;BME280;39326;42.650;23.248;2023-03-12T08:28:02;92117.94;;;2.63;45.80
53041;BME280;39326;42.650;23.248;2023-03-12T08:30:29;92124.56;;;2.92;44.67
53041;BME280;39326;42.650;23.248;2023-03-12T08:32:54;92126.84;;;3.51;44.49
53041;BME280;39326;42.650;23.248;2023-03-12T08:35:20;92142.66;;;3.71;44.27
53041;BME280;39326;42.650;23.248;2023-03-12T08:37:46;92143.25;;;3.83;44.32
53041;BME280;39326;42.650;23.248;2023-03-12T08:40:11;92139.00;;;4.44;44.28
53041;BME280;39326;42.650;23.248;2023-03-12T08:42:40;92127.69;;;4.44;43.45
53041;BME280;39326;42.650;23.248;2023-03-12T08:45:07;92136.97;;;4.11;42.66
53041;BME280;39326;42.650;23.248;2023-03-12T08:47:33;92131.63;;;4.30;44.40
53041;BME280;39326;42.650;23.248;2023-03-12T08:49:59;92142.72;;;4.66;43.41
53041;BME280;39326;42.650;23.248;2023-03-12T08:52:24;92113.53;;;3.64;42.06
53041;BME280;39326;42.650;23.248;2023-03-12T08:54:49;92151.34;;;3.32;41.27
53041;BME280;39326;42.650;23.248;2023-03-12T08:57:15;92147.81;;;2.90;42.31
53041;BME280;39326;42.650;23.248;2023-03-12T08:59:40;92153.06;;;3.05;44.38
53041;BME280;39326;42.650;23.248;2023-03-12T09:02:06;92154.38;;;3.34;44.56
53041;BME280;39326;42.650;23.248;2023-03-12T09:04:31;92148.94;;;3.85;44.10
53041;BME280;39326;42.650;23.248;2023-03-12T09:06:59;92133.41;;;4.03;43.46
53041;BME280;39326;42.650;23.248;2023-03-12T09:09:25;92140.88;;;4.44;43.27
53041;BME280;39326;42.650;23.248;2023-03-12T09:11:50;92135.34;;;4.52;41.88
53041;BME280;39326;42.650;23.248;2023-03-12T09:14:16;92122.69;;;4.61;43.26
53041;BME280;39326;42.650;23.248;2023-03-12T09:16:41;92136.38;;;4.21;42.55
53041;BME280;39326;42.650;23.248;2023-03-12T09:19:07;92133.13;;;4.54;43.55
53041;BME280;39326;42.650;23.248;2023-03-12T09:21:32;92127.06;;;4.54;42.59
53041;BME280;39326;42.650;23.248;2023-03-12T09:23:58;92140.53;;;4.45;43.10
53041;BME280;39326;42.650;23.248;2023-03-12T09:26:23;92137.72;;;3.69;42.20
53041;BME280;39326;42.650;23.248;2023-03-12T09:28:49;92137.31;;;4.32;43.02
53041;BME280;39326;42.650;23.248;2023-03-12T09:31:14;92136.63;;;4.12;42.44
53041;BME280;39326;42.650;23.248;2023-03-12T09:33:40;92139.59;;;3.69;42.61
53041;BME280;39326;42.650;23.248;2023-03-12T09:36:05;92130.66;;;3.96;42.64
53041;BME280;39326;42.650;23.248;2023-03-12T09:38:31;92127.44;;;4.52;42.41
53041;BME280;39326;42.650;23.248;2023-03-12T09:41:00;92094.44;;;4.16;42.71
53041;BME280;39326;42.650;23.248;2023-03-12T09:45:56;92153.75;;;4.98;42.61
53041;BME280;39326;42.650;23.248;2023-03-12T09:48:34;92144.38;;;4.25;40.99
53041;BME280;39326;42.650;23.248;2023-03-12T09:51:25;92129.00;;;4.30;43.01
53041;BME280;39326;42.650;23.248;2023-03-12T09:53:53;92131.84;;;4.22;42.30
53041;BME280;39326;42.650;23.248;2023-03-12T09:56:21;92131.38;;;4.62;42.59
53041;BME280;39326;42.650;23.248;2023-03-12T09:58:48;92138.47;;;4.84;41.49
53041;BME280;39326;42.650;23.248;2023-03-12T10:01:37;92138.41;;;5.07;41.73
53041;BME280;39326;42.650;23.248;2023-03-12T10:04:56;92141.28;;;5.25;41.14
53041;BME280;39326;42.650;23.248;2023-03-12T10:09:48;92132.59;;;4.98;41.74
53041;BME280;39326;42.650;23.248;2023-03-12T10:18:29;92122.06;;;4.45;42.55
53041;BME280;39326;42.650;23.248;2023-03-12T10:24:26;92124.09;;;4.82;42.81
53041;BME280;39326;42.650;23.248;2023-03-12T10:26:57;92123.78;;;5.17;41.78
53041;BME280;39326;42.650;23.248;2023-03-12T10:29:26;92119.78;;;5.30;41.69
53041;BME280;39326;42.650;23.248;2023-03-12T10:32:04;92133.13;;;5.11;41.14
53041;BME280;39326;42.650;23.248;2023-03-12T10:34:38;92135.75;;;5.07;40.75
53041;BME280;39326;42.650;23.248;2023-03-12T10:37:24;92125.34;;;5.55;41.91
53041;BME280;39326;42.650;23.248;2023-03-12T10:39:53;92132.91;;;5.53;40.43
53041;BME280;39326;42.650;23.248;2023-03-12T10:42:22;92138.44;;;5.74;41.04
53041;BME280;39326;42.650;23.248;2023-03-12T10:44:53;92134.56;;;5.35;40.61
53041;BME280;39326;42.650;23.248;2023-03-12T10:47:33;92136.66;;;4.92;41.18
53041;BME280;39326;42.650;23.248;2023-03-12T10:50:21;92137.53;;;4.47;42.55
53041;BME280;39326;42.650;23.248;2023-03-12T10:52:49;92127.38;;;5.32;42.10
53041;BME280;39326;42.650;23.248;2023-03-12T10:55:27;92140.16;;;5.60;41.09
53041;BME280;39326;42.650;23.248;2023-03-12T10:57:57;92133.50;;;5.39;41.28
53041;BME280;39326;42.650;23.248;2023-03-12T11:00:28;92131.22;;;5.71;41.48
53041;BME280;39326;42.650;23.248;2023-03-12T11:03:03;92119.38;;;6.40;41.08
53041;BME280;39326;42.650;23.248;2023-03-12T11:07:56;92119.59;;;6.20;39.93
53041;BME280;39326;42.650;23.248;2023-03-12T11:10:44;92123.63;;;6.55;40.94
53041;BME280;39326;42.650;23.248;2023-03-12T11:15:47;92111.16;;;6.08;40.42
53041;BME280;39326;42.650;23.248;2023-03-12T11:21:13;92116.03;;;5.01;40.49
53041;BME280;39326;42.650;23.248;2023-03-12T11:26:28;92105.22;;;5.43;40.79
53041;BME280;39326;42.650;23.248;2023-03-12T11:29:02;92113.34;;;5.98;41.71
53041;BME280;39326;42.650;23.248;2023-03-12T11:31:40;92114.34;;;5.87;39.27
53041;BME280;39326;42.650;23.248;2023-03-12T11:34:18;92110.38;;;6.03;40.07
53041;BME280;39326;42.650;23.248;2023-03-12T11:39:46;92118.09;;;6.23;39.50
53041;BME280;39326;42.650;23.248;2023-03-12T11:45:38;92116.13;;;6.13;37.89
53041;BME280;39326;42.650;23.248;2023-03-12T11:48:07;92106.53;;;5.97;38.83
53041;BME280;39326;42.650;23.248;2023-03-12T11:55:53;92117.56;;;5.02;39.06
53041;BME280;39326;42.650;23.248;2023-03-12T12:00:50;92102.22;;;5.82;39.52
53041;BME280;39326;42.650;23.248;2023-03-12T12:06:31;92109.56;;;6.95;38.67
53041;BME280;39326;42.650;23.248;2023-03-12T12:09:20;92112.78;;;6.64;38.79
53041;BME280;39326;42.650;23.248;2023-03-12T12:12:20;92114.63;;;6.56;36.54
53041;BME280;39326;42.650;23.248;2023-03-12T12:28:12;92114.50;;;6.01;37.37
53041;BME280;39326;42.650;23.248;2023-03-12T12:30:53;92104.38;;;6.10;38.37
53041;BME280;39326;42.650;23.248;2023-03-12T12:33:29;92113.16;;;6.66;37.85
53041;BME280;39326;42.650;23.248;2023-03-12T12:35:57;92114.31;;;6.20;37.60
53041;BME280;39326;42.650;23.248;2023-03-12T12:38:57;92118.16;;;6.30;37.33
53041;BME280;39326;42.650;23.248;2023-03-12T12:41:28;92115.31;;;6.53;38.15
53041;BME280;39326;42.650;23.248;2023-03-12T12:44:11;92115.44;;;6.67;37.97
53041;BME280;39326;42.650;23.248;2023-03-12T12:46:40;92113.63;;;6.78;38.37
53041;BME280;39326;42.650;23.248;2023-03-12T12:49:18;92122.75;;;7.57;37.36
53041;BME280;39326;42.650;23.248;2023-03-12T12:51:49;92130.75;;;7.79;36.45
53041;BME280;39326;42.650;23.248;2023-03-12T12:57:12;92112.69;;;8.56;34.31
53041;BME280;39326;42.650;23.248;2023-03-12T12:59:43;92110.41;;;8.83;35.49
53041;BME280;39326;42.650;23.248;2023-03-12T13:02:19;92109.94;;;7.95;35.10
53041;BME280;39326;42.650;23.248;2023-03-12T13:04:46;92108.03;;;7.92;35.69
53041;BME280;39326;42.650;23.248;2023-03-12T13:09:48;92110.25;;;7.72;35.55
53041;BME280;39326;42.650;23.248;2023-03-12T13:12:32;92102.22;;;7.47;35.39
53041;BME280;39326;42.650;23.248;2023-03-12T13:15:01;92103.09;;;7.76;36.68
53041;BME280;39326;42.650;23.248;2023-03-12T13:20:32;92106.50;;;7.77;36.95
53041;BME280;39326;42.650;23.248;2023-03-12T13:23:25;92121.19;;;7.56;35.53
53041;BME280;39326;42.650;23.248;2023-03-12T13:30:58;92127.50;;;7.23;37.34
53041;BME280;39326;42.650;23.248;2023-03-12T13:33:44;92126.50;;;7.56;36.89
53041;BME280;39326;42.650;23.248;2023-03-12T13:41:45;92139.34;;;7.40;37.06
53041;BME280;39326;42.650;23.248;2023-03-12T13:49:42;92144.09;;;7.09;37.10
53041;BME280;39326;42.650;23.248;2023-03-12T13:52:20;92149.28;;;6.88;37.27
53041;BME280;39326;42.650;23.248;2023-03-12T13:55:00;92139.41;;;6.37;37.63
53041;BME280;39326;42.650;23.248;2023-03-12T13:57:35;92136.34;;;6.31;38.33
53041;BME280;39326;42.650;23.248;2023-03-12T14:00:10;92147.84;;;6.53;38.56
53041;BME280;39326;42.650;23.248;2023-03-12T14:02:42;92154.38;;;6.60;37.94
53041;BME280;39326;42.650;23.248;2023-03-12T14:05:10;92132.97;;;6.86;37.10
53041;BME280;39326;42.650;23.248;2023-03-12T14:18:27;92150.44;;;6.91;37.66
53041;BME280;39326;42.650;23.248;2023-03-12T14:20:57;92151.25;;;7.05;37.58
53041;BME280;39326;42.650;23.248;2023-03-12T14:23:27;92150.41;;;7.60;37.30
53041;BME280;39326;42.650;23.248;2023-03-12T14:25:57;92154.78;;;7.24;37.16
53041;BME280;39326;42.650;23.248;2023-03-12T14:28:24;92163.91;;;7.30;37.23
53041;BME280;39326;42.650;23.248;2023-03-12T14:31:02;92169.34;;;6.89;36.04
53041;BME280;39326;42.650;23.248;2023-03-12T14:33:35;92150.28;;;6.28;36.92
53041;BME280;39326;42.650;23.248;2023-03-12T14:36:12;92168.78;;;6.21;37.52
53041;BME280;39326;42.650;23.248;2023-03-12T14:38:42;92166.56;;;6.30;38.13